Reno (UNR), Valley Road, Nevada Weather observations

Data are for observation ending at time listed.
 Day   Time    Ave.   Ave.  Ave.  Vector   Max.    Total    Solar   Rl      Baro.   Ave.  
  of    of     Air    Rel.  Wind   Wind    Wind   Precip.   Rad.    in      Pres.   Soil  
Year   Day     Temp.  Hum.  Speed  Dir.    Gust                                     Temp. 
2015   (PST)    F      %     mph   deg.    mph      in.     W/m2    W/m2     mb.     F   
-----------------------------------------------------------------------------------------
 213    6:20   66.6    48    0.8    44      3.6     0.00      68     397    857.0   77.1
 213    6:30   67.0    45    2.5    42      4.1     0.00      63     400    857.0   77.1
 213    6:40   67.6    44    0.9    41      3.9     0.00      62     397    857.0   77.0
 213    6:50   68.3    44    0.3   261      1.9     0.00      82     386    857.0   76.9
 213    7:00   68.8    44    1.6   280      2.5     0.00     219     379    856.8   76.9
 213    7:10   71.4    38    1.4   292      3.7     0.00     208     384    856.6   76.8
 213    7:20   72.3    35    3.5   147      6.0     0.00     284     394    856.6   76.8
 213    7:30   72.4    34    4.4   114      6.5     0.00     237     404    856.7   76.7
 213    7:40   72.1    36    3.4   134      6.8     0.00     195     414    856.6   76.7
 213    7:50   72.8    35    2.3   225      7.1     0.00     176     415    856.5   76.7
 213    8:00   73.1    35    2.1   236      5.3     0.00     174     415    856.3   76.7
 213    8:10   74.1    34    0.9   279      3.0     0.00     197     415    856.3   76.7
 213    8:20   74.7    33    1.8   292      3.3     0.00     241     414    856.2   76.7
 213    8:30   75.4    33    0.6    18      2.5     0.00     401     416    856.1   76.7
 213    8:40   78.6    30    2.1   251      4.0     0.00     680     407    855.8   76.7
 213    8:50   79.5    28    2.0   217      5.9     0.00     378     394    855.5   76.7
 213    9:00   78.1    30    3.6   136      6.0     0.00     393     392    855.3   76.7
 213    9:10   80.6    27    2.5   184      5.7     0.00     837     399    855.1   76.8
 213    9:20   83.3    24    2.7   270      5.3     0.00     812     406    854.7   76.9
 213    9:30   85.0    22    2.6   290      5.9     0.00     836     407    854.2   76.9
 213    9:40   86.6    21    2.2   226      4.5     0.00     849     411    853.7   77.0
 213    9:50   87.2    21    2.7   149      6.0     0.00     667     417    853.2   77.0
 213   10:00   87.9    20    2.9   202      5.9     0.00     697     424    852.8   77.1
 213   10:10   87.1    20    4.6   183      7.2     0.00     373     428    852.3   77.2
 213   10:20   87.1    20    3.2   195      6.4     0.00     644     430    852.1   77.2
 213   10:30   89.9    20    4.8   191      9.4     0.00     942     425    852.0   77.3
 213   10:40   89.8    20    5.5   196      9.8     0.00     778     415    851.7   77.4
 213   10:50   91.0    18    5.4   193      8.7     0.00     914     415    851.4   77.5
 213   11:00   91.9    15    2.8   215      6.4     0.00     926     419    851.2   77.7
 213   11:10   91.7    15    3.6   129      7.8     0.00     953     425    850.9   77.8
 213   11:20   93.8    14    3.0   200      7.1     0.00     973     428    850.6   78.0
 213   11:30   94.0    14    4.1   242      7.4     0.00     989     430    850.3   78.2
 213   11:40   93.6    14    4.2   190      8.3     0.00    1026     429    850.1   78.5
 213   11:50   93.7    14    3.9   200      7.3     0.00     882     433    849.8   78.8
 213   12:00   93.8    14    4.3   184      7.2     0.00     942     433    849.6   79.1
 213   12:10   94.9    13    3.5    69      8.5     0.00     923     437    849.3   79.4
 213   12:20   93.9    13    3.5   302      8.3     0.00     922     439    849.0   79.7
 213   12:30   94.8    13    3.7    58      7.0     0.00     885     442    848.8   80.0
 213   12:40   93.4    14    6.3   102     11.3     0.00     688     440    848.4   80.4
 213   12:50   93.3    14    3.8   104      8.4     0.00     670     438    848.2   80.7
 213   13:00   94.0    14    3.2   192      6.2     0.00     760     439    848.1   81.0
 213   13:10   94.4    14    4.9   258     11.4     0.00     606     440    847.9   81.4
 213   13:20   94.1    14    3.4   269      7.3     0.00     698     441    847.8   81.6
 213   13:30   95.2    14    1.9   295      6.1     0.00     540     438    847.6   81.9
 213   13:40   94.8    14    4.0    56      8.6     0.00     623     443    847.4   82.1
 213   13:50   94.7    14    3.4    78      6.4     0.00     735     445    847.2   82.4
 213   14:00   95.7    14    5.5   193      9.6     0.00     567     443    847.0   82.6
 213   14:10   94.4    14    4.1   172      9.4     0.00     515     438    846.9   82.7
 213   14:20   95.9    14    4.2   231      9.3     0.00    1040     448    846.7   82.9
 213   14:30   96.6    14    4.2   162      8.8     0.00     854     452    846.5   83.1
 213   14:40   96.3    13    2.4    78      7.0     0.00     582     452    846.3   83.2
 213   14:50   95.9    13    5.6   247      9.7     0.00     710     452    846.0   83.4
 213   15:00   95.8    13    3.1   141      6.9     0.00     498     449    845.9   83.5
 213   15:10   95.2    13    2.4   200      6.0     0.00     355     446    845.7   83.7
 213   15:20   94.3    14    4.0   291      7.8     0.00     304     446    845.7   83.8
 213   15:30   94.3    14    2.0   252      4.8     0.00     252     444    845.7   84.0
 213   15:40   93.6    14    4.1   283      6.4     0.00     221     447    845.8   84.1
 213   15:50   93.0    15    3.4   265      7.5     0.00     205     445    845.8   84.2
 213   16:00   93.4    14    3.9   222      6.8     0.00     207     444    846.0   84.4
 213   16:10   92.7    17    4.4   241      8.5     0.00     196     452    846.1   84.5
 213   16:20   92.1    19    4.7   266     11.3     0.00     182     448    846.2   84.5
 213   16:30   91.0    19    7.7   265     13.3     0.00     156     448    846.3   84.6
 213   16:40   90.4    20    7.6   269     14.2     0.00     140     449    846.4   84.7
 213   16:50   90.1    21    6.2   262     11.0     0.00     130     440    846.6   84.7
 213   17:00   89.8    22    6.1   253     11.8     0.00     122     445    846.8   84.7
 213   17:10   89.8    23    6.1   223     10.4     0.00     128     446    847.1   84.7
 213   17:20   89.6    24    4.7   251      9.3     0.00     135     445    847.2   84.7
 213   17:30   88.9    26    5.9   264     11.2     0.00     121     441    847.3   84.7
 213   17:40   88.5    26    5.4   266      9.7     0.00     104     441    847.3   84.7
 213   17:50   88.5    26    4.9   260      9.0     0.00      92     439    847.5   84.7
 213   18:00   88.4    26    4.6   253     11.0     0.00      83     436    847.6   84.7
 213   18:10   88.3    26    4.4   249      9.2     0.00      70     436    847.7   84.7
 213   18:20   87.7    29    3.0   270      6.4     0.00      54     435    848.0   84.6
 213   18:30   86.8    31    4.9   268     11.9     0.00      39     437    848.2   84.6
 213   18:40   86.0    32    7.4   274     16.6     0.00      30     434    848.3   84.5
 213   18:50   85.6    32    8.8   263     14.3     0.00      25     426    848.4   84.5
 213   19:00   85.3    33    7.7   266     14.0     0.00      19     428    848.5   84.5
 213   19:10   84.9    33    8.0   262     15.7     0.00      10     426    848.7   84.4
 213   19:20   84.5    33    7.7   265     12.8     0.00       4     423    848.9   84.3
 213   19:30   84.1    33    6.4   266     12.5     0.00       1     426    849.0   84.3
 213   19:40   83.9    34    7.2   263     13.1     0.00       0     441    849.3   84.2
 213   19:50   83.9    33    7.7   192     14.6     0.00       0     453    849.9   84.1
 213   20:00   84.1    31    4.6   155     10.2     0.00       0     444    850.2   84.1
 213   20:10   83.9    29    6.1   164     11.2     0.00       0     430    850.5   84.0
 213   20:20   83.4    27    9.5   157     15.1     0.00       0     426    850.9   83.9
 213   20:30   82.8    27    7.3   160     12.8     0.00       0     426    851.0   83.8
 213   20:40   82.4    27    7.9   164     14.9     0.00       0     427    851.3   83.8
 213   20:50   82.0    28    6.8   160     12.2     0.00       0     422    851.5   83.7
 213   21:00   81.6    28    7.5   158     12.9     0.00       0     421    851.6   83.6
 213   21:10   81.2    28    6.1   153     10.3     0.00       0     414    851.9   83.5
 213   21:20   81.0    28    5.0   142      8.7     0.00       0     416    852.0   83.4
 213   21:30   80.6    28    3.6   168      6.0     0.00       0     426    852.0   83.4
 213   21:40   80.4    29    1.5   177      4.5     0.00       0     436    852.1   83.3
 213   21:50   80.1    29    5.3    50     10.7     0.00       0     437    852.3   83.2
 213   22:00   80.0    30    5.6    41     10.6     0.00       0     436    852.2   83.1
 213   22:10   80.0    30    5.3    72      8.7     0.00       0     435    851.9   83.0
 213   22:20   79.9    30    2.1    71      5.8     0.00       0     428    851.8   82.9
 213   22:30   79.0    31    3.3   245      5.7     0.00       0     419    851.8   82.8
 213   22:40   78.7    34    5.3   274     11.0     0.00       0     407    851.8   82.7
 213   22:50   78.3    33    5.6   296     10.6     0.00       0     398    851.8   82.6
 213   23:00   78.3    37    4.8   266      9.0     0.00       0     399    851.6   82.5
 213   23:10   78.5    38    3.7   268      9.1     0.00       0     402    851.6   82.5
 213   23:20   78.5    38    6.1   226     12.7     0.00       0     407    851.8   82.4
 213   23:30   75.7    44    8.1   233     14.4     0.00       0     410    851.9   82.3
 213   23:40   75.2    44    8.6   244     14.6     0.00       0     414    852.1   82.2
 213   23:50   75.3    44    3.3   324      7.4     0.00       0     412    852.3   82.1
 214    0:00   75.3    43    5.1    39     10.3     0.00       0     402    852.5   82.0
 214    0:10   75.2    42    3.4    77      7.0     0.00       0     402    852.7   81.9
 214    0:20   75.1    42    0.7   177      3.4     0.00       0     400    852.8   81.8
 214    0:30   74.4    43    3.7    44      6.4     0.00       0     392    852.7   81.8
 214    0:40   72.8    46    3.3   351      4.8     0.00       0     387    852.6   81.7
 214    0:50   72.5    46    1.6   312      5.1     0.00       0     384    852.5   81.6
 214    1:00   71.5    48    2.9    68      4.0     0.00       0     379    852.7   81.5
 214    1:10   72.0    47    2.2    96      4.0     0.00       0     374    852.8   81.4
 214    1:20   71.3    48    1.2   314      2.6     0.00       0     373    852.9   81.3
 214    1:30   70.7    50    1.6   277      4.5     0.00       0     378    853.0   81.2
 214    1:40   70.3    50    1.5   223      4.3     0.00       0     388    853.1   81.1
 214    1:50   70.1    51    1.9   181      3.1     0.00       0     390    853.2   81.1
 214    2:00   70.4    50    1.4   285      3.5     0.00       0     391    853.3   81.0
 214    2:10   70.8    46    1.4   187      4.6     0.00       0     395    853.3   80.9
 214    2:20   70.9    45    1.1   214      3.1     0.00       0     390    853.4   80.8
 214    2:30   70.1    50    1.3   355      3.7     0.00       0     389    853.4   80.7
 214    2:40   69.6    49    0.7   207      3.0     0.00       0     388    853.5   80.6
 214    2:50   70.1    47    1.2   171      3.9     0.00       0     383    853.5   80.5
 214    3:00   69.3    51    2.4   328      3.8     0.00       0     379    853.4   80.4
 214    3:10   68.5    51    2.6    25      4.6     0.00       0     377    853.5   80.3
 214    3:20   68.8    50    3.9    60      6.0     0.00       0     378    853.7   80.2
 214    3:30   69.4    50    1.7   287      3.6     0.00       0     379    853.7   80.1
 214    3:40   68.7    51    0.9   327      2.6     0.00       0     376    853.7   80.0
 214    3:50   68.2    52    0.4    42      2.0     0.00       0     375    853.9   79.9
 214    4:00   67.6    53    0.3   295      1.4     0.00       0     380    854.0   79.8
 214    4:10   67.6    53    1.7   294      4.2     0.00       0     380    854.1   79.7
 214    4:20   67.5    54    1.7   341      3.3     0.00       0     381    854.2   79.6
 214    4:30   68.2    52    2.2   131      3.3     0.00       0     381    854.2   79.5
 214    4:40   68.7    52    2.2   150      4.9     0.00       0     383    854.1   79.4
 214    4:50   69.0    52    2.9   170      4.8     0.00       0     387    854.2   79.4
 214    5:00   69.1    53    2.5   197      3.6     0.00       1     394    854.3   79.3
 214    5:10   68.9    54    1.8   251      3.3     0.00       3     394    854.3   79.2
 214    5:20   68.3    55    0.2   263      1.8     0.00       9     393    854.5   79.1
 214    5:30   68.3    55    1.5   190      3.3     0.00      19     385    854.5   79.0
 214    5:40   68.3    56    0.2   327      1.2     0.00      33     386    854.7   78.9
 214    5:50   68.3    56    0.4   144      1.7     0.00      56     393    854.8   78.8
 214    6:00   69.2    55    0.8   268      2.7     0.00      92     397    854.9   78.7
 214    6:10   69.8    57    1.1   336      2.6     0.00     116     396    854.8   78.7

Return to Reno (UNR), Nevada graphs page.


Western Regional Climate Center,wrcc@dri.edu